Time;durP1;ratioP1;P1;durP2;ratioP2;P2;SDS_P1;SDS_P2;PMS_P1;PMS_P2;Temp;Humidity;BMP_temperature;BMP_pressure;BME280_temperature;BME280_humidity;BME280_pressure;Samples;Min_cycle;Max_cycle;Signal;HPM_P1;HPM_P2
2021/05/12 00:01:55;;;;;;;8.43;2.92;;;;;;;14.75;46.43;99351.69;5011259;28;20029;-73
2021/05/12 00:04:21;;;;;;;4.57;2.90;;;;;;;14.82;45.71;99351.03;4993906;28;20037;-74
2021/05/12 00:06:46;;;;;;;8.73;2.97;;;;;;;14.84;46.19;99357.09;4993556;28;20033;-73
2021/05/12 00:09:12;;;;;;;3.08;2.78;;;;;;;14.81;45.41;99343.78;5011001;28;20491;-74
2021/05/12 00:11:37;;;;;;;4.60;2.88;;;;;;;14.50;47.28;99345.44;4993258;28;20121;-74
2021/05/12 00:14:04;;;;;;;8.40;2.53;;;;;;;14.42;47.48;99350.88;4993582;28;20495;-74
2021/05/12 00:16:29;;;;;;;4.63;3.03;;;;;;;14.31;48.00;99344.19;5011025;28;20038;-73
2021/05/12 00:18:55;;;;;;;2.83;2.60;;;;;;;14.57;46.06;99345.59;4993411;28;20096;-74
2021/05/12 00:21:39;;;;;;;6.35;2.30;;;;;;;14.37;47.39;99337.09;5011134;28;20030;-73
2021/05/12 00:24:05;;;;;;;5.28;3.20;;;;;;;14.40;46.31;99338.34;4993286;28;20072;-73
2021/05/12 00:26:40;;;;;;;4.50;2.45;;;;;;;14.17;48.01;99344.63;5010878;28;20109;-73
2021/05/12 00:29:10;;;;;;;7.75;2.90;;;;;;;13.98;48.36;99334.91;5010971;28;20116;-74
2021/05/12 00:31:36;;;;;;;6.15;3.28;;;;;;;13.92;48.93;99338.38;4993193;28;20030;-74
2021/05/12 00:34:02;;;;;;;4.40;3.15;;;;;;;14.08;48.08;99338.38;4993314;28;20039;-73
2021/05/12 00:36:28;;;;;;;4.35;2.95;;;;;;;14.06;48.47;99321.03;5010734;28;20026;-73
2021/05/12 00:38:56;;;;;;;8.55;3.25;;;;;;;14.08;47.97;99319.50;4993248;28;20033;-73
2021/05/12 00:41:22;;;;;;;8.40;3.42;;;;;;;13.76;48.96;99319.50;5010611;28;20407;-74
2021/05/12 00:43:47;;;;;;;6.18;3.40;;;;;;;13.71;49.57;99319.75;5010648;28;20030;-74
2021/05/12 00:46:13;;;;;;;4.60;3.58;;;;;;;13.59;49.22;99318.63;4992903;28;20034;-74
2021/05/12 00:48:39;;;;;;;5.65;3.63;;;;;;;13.70;48.96;99310.50;4992958;28;20036;-73
2021/05/12 00:51:05;;;;;;;9.50;3.78;;;;;;;13.72;49.07;99307.31;5010562;28;20554;-74
2021/05/12 00:53:32;;;;;;;9.82;3.72;;;;;;;13.81;48.50;99316.41;5010786;28;20030;-73
2021/05/12 00:55:57;;;;;;;7.38;4.03;;;;;;;13.74;49.06;99300.16;5010990;28;20037;-73
2021/05/12 00:58:23;;;;;;;7.90;3.20;;;;;;;13.70;49.19;99304.06;5010982;28;20474;-74
2021/05/12 01:00:49;;;;;;;6.50;3.50;;;;;;;13.69;49.08;99299.63;5010876;28;20034;-74
2021/05/12 01:03:14;;;;;;;7.28;3.90;;;;;;;13.81;48.64;99305.16;4993149;28;20045;-74
2021/05/12 01:05:48;;;;;;;16.70;4.40;;;;;;;13.76;48.66;99302.63;5010734;28;20037;-74
2021/05/12 01:08:15;;;;;;;7.75;3.83;;;;;;;13.82;48.44;99303.19;5010603;28;20029;-74
2021/05/12 01:10:40;;;;;;;7.18;3.28;;;;;;;13.42;49.75;99302.06;5010489;28;20042;-74
2021/05/12 01:13:06;;;;;;;8.52;4.00;;;;;;;13.66;48.89;99294.72;4992752;28;20467;-73
2021/05/12 01:15:31;;;;;;;4.80;3.53;;;;;;;13.47;49.64;99302.66;5010545;28;20030;-74
2021/05/12 01:18:15;;;;;;;7.78;3.15;;;;;;;13.25;49.80;99303.19;5010430;28;20448;-74
2021/05/12 01:20:50;;;;;;;6.40;2.65;;;;;;;13.50;48.83;99297.50;4992673;28;20419;-74
2021/05/12 01:23:16;;;;;;;8.57;2.92;;;;;;;13.26;49.31;99304.81;4992782;28;20026;-74
2021/05/12 01:25:42;;;;;;;6.90;3.60;;;;;;;13.21;49.27;99300.28;5010162;28;20026;-75
2021/05/12 01:28:08;;;;;;;9.90;3.58;;;;;;;13.13;49.67;99292.81;4992895;28;20029;-74
2021/05/12 01:30:33;;;;;;;4.18;3.28;;;;;;;13.08;49.19;99293.06;5010044;28;20431;-74
2021/05/12 01:33:00;;;;;;;6.65;4.47;;;;;;;12.85;49.66;99282.38;5010396;28;20036;-74
2021/05/12 01:35:27;;;;;;;5.50;4.60;;;;;;;12.83;49.62;99284.72;4992700;28;20034;-74
2021/05/12 01:37:52;;;;;;;14.18;4.60;;;;;;;12.80;49.91;99285.44;5010085;28;20117;-74
2021/05/12 01:40:18;;;;;;;9.82;3.90;;;;;;;12.84;49.99;99280.75;4992575;28;20536;-74
2021/05/12 01:42:44;;;;;;;9.57;3.47;;;;;;;12.84;50.20;99281.56;5009957;28;20080;-73
2021/05/12 01:45:10;;;;;;;4.60;3.60;;;;;;;12.72;50.30;99279.59;4992624;28;20022;-74
2021/05/12 01:47:36;;;;;;;5.68;3.83;;;;;;;12.79;49.91;99267.78;5009918;28;20026;-74
2021/05/12 01:50:08;;;;;;;4.25;3.67;;;;;;;12.62;50.31;99268.88;5009953;28;20111;-74
2021/05/12 01:52:42;;;;;;;6.40;4.43;;;;;;;12.54;50.57;99273.44;4992669;28;20038;-74
2021/05/12 01:55:09;;;;;;;11.43;4.10;;;;;;;12.23;50.71;99274.06;4994104;28;20026;-74
2021/05/12 01:57:35;;;;;;;4.47;3.15;;;;;;;12.37;51.00;99260.50;5013786;28;20057;-73
2021/05/12 02:00:03;;;;;;;5.72;3.55;;;;;;;12.33;51.66;99257.56;4995677;28;20026;-73
2021/05/12 02:02:28;;;;;;;8.75;3.75;;;;;;;12.31;51.00;99265.53;5013649;28;20109;-74
2021/05/12 02:04:53;;;;;;;16.17;4.57;;;;;;;12.30;50.86;99263.06;4995800;28;20567;-73
2021/05/12 02:07:19;;;;;;;10.05;4.47;;;;;;;12.15;51.98;99267.41;5013457;28;20502;-74
2021/05/12 02:09:52;;;;;;;11.70;4.85;;;;;;;12.10;51.93;99259.22;4995596;28;20069;-73
2021/05/12 02:12:17;;;;;;;12.80;4.47;;;;;;;11.96;52.18;99265.16;5013470;28;20026;-73
2021/05/12 02:14:43;;;;;;;10.60;4.78;;;;;;;11.80;52.83;99265.81;4995585;28;20114;-73
2021/05/12 02:17:08;;;;;;;9.65;6.88;;;;;;;12.11;51.96;99266.47;5013206;28;20025;-74
2021/05/12 02:19:34;;;;;;;12.27;6.88;;;;;;;12.07;52.21;99266.38;5013267;28;20098;-74
2021/05/12 02:21:59;;;;;;;19.45;8.13;;;;;;;11.86;52.67;99256.03;4995393;28;20033;-74
2021/05/12 02:24:25;;;;;;;21.70;10.07;;;;;;;12.02;51.88;99253.41;5013094;28;20074;-74
2021/05/12 02:26:50;;;;;;;29.67;9.43;;;;;;;12.15;51.59;99250.59;5013059;28;20065;-73
2021/05/12 02:29:15;;;;;;;13.82;6.95;;;;;;;12.34;51.34;99247.19;5013109;28;20037;-73
2021/05/12 02:31:41;;;;;;;18.88;5.70;;;;;;;12.29;51.38;99251.03;5013052;28;20033;-73
2021/05/12 02:34:06;;;;;;;11.80;5.35;;;;;;;12.17;51.87;99253.84;5013384;28;20100;-73
2021/05/12 02:36:32;;;;;;;10.43;6.03;;;;;;;12.08;52.01;99249.19;5013287;28;20407;-73
2021/05/12 02:38:57;;;;;;;10.10;5.65;;;;;;;12.11;51.79;99249.63;5013163;28;20462;-73
2021/05/12 02:41:23;;;;;;;6.38;5.43;;;;;;;11.97;51.59;99242.38;5012900;28;20029;-74
2021/05/12 02:43:48;;;;;;;15.98;6.95;;;;;;;12.10;50.86;99243.22;5013218;28;20092;-73
2021/05/12 02:46:14;;;;;;;10.52;6.63;;;;;;;11.98;51.26;99230.00;4995347;28;20397;-73
2021/05/12 02:48:39;;;;;;;10.90;6.25;;;;;;;12.12;51.78;99232.47;5012585;28;20050;-73
2021/05/12 02:51:05;;;;;;;18.00;5.70;;;;;;;12.17;51.77;99231.44;5012527;28;20109;-73
2021/05/12 02:53:30;;;;;;;7.85;4.95;;;;;;;12.28;51.22;99226.16;4995214;28;20032;-73
2021/05/12 02:55:56;;;;;;;16.05;5.70;;;;;;;12.15;51.37;99226.16;4994963;28;20052;-74
2021/05/12 02:58:22;;;;;;;9.07;4.82;;;;;;;12.03;51.43;99228.97;5012613;28;20038;-73
2021/05/12 03:00:47;;;;;;;7.15;4.60;;;;;;;12.00;51.03;99227.66;4994893;28;20443;-74
2021/05/12 03:03:13;;;;;;;7.25;5.55;;;;;;;11.99;51.34;99231.63;4994788;28;20030;-73
2021/05/12 03:05:39;;;;;;;11.25;5.75;;;;;;;11.62;53.20;99238.03;4994712;28;20034;-74
2021/05/12 03:08:05;;;;;;;9.75;5.20;;;;;;;11.49;53.33;99239.97;5012399;28;20061;-74
2021/05/12 03:10:32;;;;;;;15.43;5.10;;;;;;;11.42;53.63;99236.13;5012217;28;20045;-73
2021/05/12 03:12:58;;;;;;;17.15;5.95;;;;;;;11.17;53.61;99236.88;5012384;28;20034;-73
2021/05/12 03:15:25;;;;;;;13.95;5.10;;;;;;;11.22;53.70;99241.41;5011999;28;20033;-74
2021/05/12 03:17:53;;;;;;;8.95;4.97;;;;;;;10.96;55.19;99236.91;5012084;28;20112;-74
2021/05/12 03:20:19;;;;;;;10.52;5.18;;;;;;;10.96;54.95;99236.91;4994454;28;20040;-73
2021/05/12 03:22:45;;;;;;;8.10;4.93;;;;;;;10.78;55.90;99237.06;4994434;28;20025;-74
2021/05/12 03:25:12;;;;;;;10.65;5.15;;;;;;;10.76;56.11;99232.97;4994419;28;20622;-73
2021/05/12 03:27:38;;;;;;;11.00;5.85;;;;;;;10.70;55.83;99243.53;4994184;28;20543;-74
2021/05/12 03:30:07;;;;;;;19.40;6.30;;;;;;;10.58;56.65;99235.91;5011586;28;20084;-74
2021/05/12 03:32:33;;;;;;;9.02;6.20;;;;;;;10.59;56.73;99233.91;4994055;28;20423;-73
2021/05/12 03:34:58;;;;;;;8.75;6.13;;;;;;;10.60;56.62;99241.16;4994468;28;20026;-74
2021/05/12 03:37:24;;;;;;;15.52;8.48;;;;;;;10.62;57.12;99245.25;4994026;28;20030;-73
2021/05/12 03:39:49;;;;;;;17.10;9.15;;;;;;;10.71;56.08;99242.38;5011699;28;20034;-73
2021/05/12 03:42:15;;;;;;;13.95;7.80;;;;;;;10.59;57.35;99240.34;4994135;28;20026;-73
2021/05/12 03:44:40;;;;;;;10.00;5.63;;;;;;;10.55;57.00;99241.38;5011590;28;20034;-73
2021/05/12 03:47:06;;;;;;;8.95;5.47;;;;;;;10.40;57.52;99238.78;5011700;28;20065;-74
2021/05/12 03:49:31;;;;;;;13.10;6.03;;;;;;;10.17;58.29;99241.09;4994077;28;20034;-74
2021/05/12 03:51:57;;;;;;;12.50;5.90;;;;;;;10.21;58.74;99235.66;5011714;28;20030;-74
2021/05/12 03:54:24;;;;;;;13.30;5.65;;;;;;;10.01;59.68;99234.44;5011996;28;20399;-73
2021/05/12 03:56:49;;;;;;;8.82;5.93;;;;;;;10.07;60.16;99225.50;5011515;28;20495;-73
2021/05/12 03:59:15;;;;;;;8.18;5.57;;;;;;;9.95;60.65;99228.22;4994048;28;20092;-73
2021/05/12 04:01:41;;;;;;;7.13;5.85;;;;;;;10.21;59.98;99235.66;5011402;28;20030;-73
2021/05/12 04:04:08;;;;;;;12.50;6.78;;;;;;;10.31;59.74;99232.44;5011853;28;20060;-73
2021/05/12 04:06:35;;;;;;;11.38;6.28;;;;;;;10.59;58.54;99231.97;5011217;28;20117;-74
2021/05/12 04:09:00;;;;;;;11.35;6.45;;;;;;;10.65;58.84;99222.19;5011413;28;20088;-73
2021/05/12 04:11:26;;;;;;;15.60;7.57;;;;;;;10.89;57.58;99226.25;5011020;28;20096;-73
2021/05/12 04:13:51;;;;;;;13.32;8.52;;;;;;;10.99;56.81;99236.22;4993660;28;20505;-73
2021/05/12 04:16:17;;;;;;;14.27;8.63;;;;;;;11.03;56.89;99234.38;4993607;28;20037;-74
2021/05/12 04:18:42;;;;;;;7.43;5.43;;;;;;;10.92;57.57;99224.75;5010215;28;20021;-74
2021/05/12 04:21:07;;;;;;;12.95;5.20;;;;;;;10.85;58.33;99219.72;5011128;28;20021;-74
2021/05/12 04:23:33;;;;;;;8.95;4.57;;;;;;;11.08;57.26;99222.16;4993524;28;20500;-73
2021/05/12 04:25:58;;;;;;;7.80;4.88;;;;;;;10.97;57.22;99227.34;4993100;28;20037;-73
2021/05/12 04:28:24;;;;;;;9.18;4.47;;;;;;;11.09;57.11;99224.59;5010945;28;20076;-74
2021/05/12 04:30:49;;;;;;;23.25;6.57;;;;;;;11.15;57.19;99218.78;5010559;28;20053;-73
2021/05/12 04:33:15;;;;;;;9.23;4.80;;;;;;;11.34;56.75;99207.06;5011082;28;20022;-73
2021/05/12 04:35:40;;;;;;;10.35;5.60;;;;;;;11.69;55.46;99212.25;4992965;28;20045;-74
2021/05/12 04:38:06;;;;;;;8.32;4.47;;;;;;;12.07;53.93;99193.47;5010897;28;20038;-74
2021/05/12 04:40:31;;;;;;;7.15;4.82;;;;;;;12.53;52.97;99196.06;5010652;28;20025;-74
2021/05/12 04:42:57;;;;;;;5.72;4.90;;;;;;;12.58;52.34;99207.03;5010550;28;20037;-74
2021/05/12 04:45:23;;;;;;;9.18;4.90;;;;;;;12.69;53.30;99207.38;5010702;28;20036;-74
2021/05/12 04:47:55;;;;;;;7.95;4.70;;;;;;;12.94;52.10;99203.63;5010483;28;20101;-74
2021/05/12 04:50:23;;;;;;;11.00;5.25;;;;;;;13.16;51.03;99211.47;5010606;28;20415;-74
2021/05/12 04:52:49;;;;;;;11.65;5.00;;;;;;;13.20;51.38;99211.59;4992862;28;20341;-74
2021/05/12 04:55:14;;;;;;;10.35;5.00;;;;;;;13.19;50.41;99199.53;4993022;28;20033;-73
2021/05/12 04:57:40;;;;;;;6.60;4.63;;;;;;;13.25;49.99;99199.28;4992714;28;20127;-75
2021/05/12 05:00:06;;;;;;;7.28;4.05;;;;;;;13.45;49.26;99208.66;5010455;28;20037;-72
2021/05/12 05:02:32;;;;;;;12.65;4.50;;;;;;;13.58;49.42;99206.59;5010619;28;20031;-75
2021/05/12 05:04:57;;;;;;;6.95;5.03;;;;;;;13.86;47.29;99200.88;5010821;28;20475;-78
2021/05/12 05:07:23;;;;;;;9.90;4.13;;;;;;;13.44;49.19;99201.41;4993077;28;20072;-71
2021/05/12 05:09:48;;;;;;;9.27;5.28;;;;;;;13.50;48.72;99188.72;5010393;28;20026;-72
2021/05/12 05:12:14;;;;;;;7.28;4.20;;;;;;;13.30;49.99;99188.59;4992738;28;20471;-74
2021/05/12 05:14:39;;;;;;;7.07;4.82;;;;;;;13.57;50.19;99194.53;5010508;28;20030;-77
2021/05/12 05:17:05;;;;;;;9.90;4.70;;;;;;;13.65;49.75;99183.50;4992430;28;20385;-70
2021/05/12 05:19:31;;;;;;;6.65;4.28;;;;;;;13.84;48.61;99180.75;5010677;28;20718;-69
2021/05/12 05:21:57;;;;;;;6.20;4.60;;;;;;;14.07;49.19;99170.84;5010572;28;20026;-72
2021/05/12 05:24:23;;;;;;;6.40;4.72;;;;;;;14.12;48.52;99173.34;5010281;28;20465;-75
2021/05/12 05:26:48;;;;;;;14.85;4.50;;;;;;;14.37;47.77;99162.69;5010371;28;20026;-75
2021/05/12 05:29:14;;;;;;;324.25;26.95;;;;;;;14.36;48.02;99168.66;5010751;28;20524;-72
2021/05/12 05:31:39;;;;;;;7.82;4.13;;;;;;;14.51;48.29;99178.25;5014211;28;20034;-75
2021/05/12 05:34:07;;;;;;;23.67;5.38;;;;;;;14.85;46.87;99175.75;4996587;28;20033;-75
2021/05/12 05:36:33;;;;;;;10.13;4.93;;;;;;;15.04;45.48;99171.28;5014121;28;20033;-75
2021/05/12 05:38:59;;;;;;;13.52;4.50;;;;;;;15.06;45.54;99180.16;5012865;28;20034;-76
2021/05/12 05:41:24;;;;;;;9.50;4.70;;;;;;;15.00;46.62;99166.41;5012024;28;20038;-75
2021/05/12 05:43:50;;;;;;;13.00;4.78;;;;;;;15.23;45.33;99162.81;5013073;28;20037;-74
2021/05/12 05:46:15;;;;;;;9.82;5.03;;;;;;;15.31;45.24;99163.75;5013816;28;20029;-77
2021/05/12 05:48:41;;;;;;;10.65;4.80;;;;;;;15.27;45.88;99163.66;4996520;28;20045;-78
2021/05/12 05:51:06;;;;;;;8.40;4.32;;;;;;;15.35;46.69;99152.53;5013792;28;20558;-74
2021/05/12 05:53:32;;;;;;;10.35;3.90;;;;;;;15.52;46.11;99163.31;5014133;28;20048;-76
2021/05/12 05:55:57;;;;;;;11.88;5.10;;;;;;;15.69;45.15;99156.34;4995965;28;20073;-77
2021/05/12 05:58:23;;;;;;;15.35;4.88;;;;;;;15.82;44.36;99154.13;5013843;28;20135;-76
2021/05/12 06:00:49;;;;;;;13.82;5.40;;;;;;;16.10;43.10;99155.78;5013682;28;20033;-76
2021/05/12 06:03:14;;;;;;;11.60;4.65;;;;;;;16.37;42.66;99161.41;5013573;28;20025;-74
2021/05/12 06:05:47;;;;;;;15.68;5.07;;;;;;;16.28;42.26;99156.06;5013539;28;20045;-73
2021/05/12 06:08:13;;;;;;;8.07;4.95;;;;;;;16.25;42.00;99142.72;4995684;28;20038;-77
2021/05/12 06:10:38;;;;;;;5.70;4.75;;;;;;;16.28;41.72;99143.94;5013366;28;20488;-72
2021/05/12 06:13:04;;;;;;;8.15;4.40;;;;;;;16.24;42.29;99145.91;4995843;28;20060;-76
2021/05/12 06:15:29;;;;;;;6.15;4.20;;;;;;;16.52;41.98;99147.47;5013425;28;20057;-75
2021/05/12 06:17:55;;;;;;;7.57;4.40;;;;;;;16.57;42.02;99144.34;4995596;28;20419;-73
2021/05/12 06:20:20;;;;;;;4.65;4.15;;;;;;;16.64;41.70;99146.44;5013183;28;20037;-73
2021/05/12 06:22:46;;;;;;;4.18;3.72;;;;;;;16.12;42.07;99138.50;4995482;28;20022;-73
2021/05/12 06:25:13;;;;;;;6.50;4.28;;;;;;;16.09;42.76;99134.41;5013260;28;20034;-73
2021/05/12 06:27:39;;;;;;;4.82;3.97;;;;;;;15.99;43.44;99127.44;5013653;28;20479;-73
2021/05/12 06:30:07;;;;;;;12.23;4.47;;;;;;;15.77;44.80;99126.25;4995840;28;20057;-78
2021/05/12 06:32:32;;;;;;;9.80;5.03;;;;;;;15.84;44.86;99122.72;5013279;28;20033;-73
2021/05/12 06:34:58;;;;;;;12.35;4.55;;;;;;;16.10;44.59;99119.13;5013289;28;20052;-70
2021/05/12 06:37:23;;;;;;;12.43;7.85;;;;;;;16.39;42.73;99119.50;4995260;28;20037;-74
2021/05/12 06:39:50;;;;;;;12.07;6.68;;;;;;;16.57;41.74;99113.28;5012721;28;20113;-77
2021/05/12 06:42:16;;;;;;;7.57;4.30;;;;;;;16.53;42.16;99103.94;4995102;28;20057;-77
2021/05/12 06:44:42;;;;;;;6.57;4.90;;;;;;;16.43;41.97;99105.44;5011008;28;20452;-84
2021/05/12 06:47:08;;;;;;;12.90;4.55;;;;;;;16.75;41.85;99095.72;4994020;28;20064;-86
2021/05/12 06:49:34;;;;;;;7.88;4.38;;;;;;;16.71;42.29;99092.84;4980600;28;20026;-72
2021/05/12 06:51:59;;;;;;;7.05;4.40;;;;;;;16.91;41.82;99092.66;4994765;28;20049;-72
2021/05/12 06:54:25;;;;;;;6.18;4.70;;;;;;;17.25;40.42;99096.28;5012464;28;20042;-85
2021/05/12 06:56:50;;;;;;;17.00;5.28;;;;;;;17.01;40.99;99091.19;5012818;28;20184;-78
2021/05/12 06:59:16;;;;;;;5.90;4.68;;;;;;;17.23;40.89;99078.88;5012929;28;20034;-76
2021/05/12 07:01:41;;;;;;;9.95;3.70;;;;;;;17.17;42.06;99082.44;5012398;28;20455;-75
2021/05/12 07:04:07;;;;;;;9.48;4.03;;;;;;;17.19;41.73;99077.22;5012902;28;20097;-71
2021/05/12 07:06:32;;;;;;;6.25;4.45;;;;;;;17.21;42.11;99084.13;5013197;28;20510;-73
2021/05/12 07:08:58;;;;;;;84.47;10.10;;;;;;;17.57;40.24;99079.97;4995206;28;20408;-80
2021/05/12 07:11:23;;;;;;;9.30;4.18;;;;;;;17.72;41.23;99072.41;5012124;28;20047;-88
2021/05/12 07:13:51;;;;;;;11.35;5.47;;;;;;;17.83;41.84;99070.47;4994591;28;20054;-81
2021/05/12 07:16:17;;;;;;;11.48;5.43;;;;;;;18.00;40.87;99068.13;5012328;28;20160;-77
2021/05/12 07:18:42;;;;;;;8.20;4.40;;;;;;;17.94;41.39;99067.69;4994602;28;20109;-71
2021/05/12 07:21:08;;;;;;;7.30;3.53;;;;;;;17.87;40.36;99076.94;4994645;28;20141;-81
2021/05/12 07:23:33;;;;;;;7.70;4.90;;;;;;;17.93;40.70;99071.72;5012115;28;20022;-74
2021/05/12 07:25:59;;;;;;;5.10;4.40;;;;;;;18.09;38.75;99063.75;4994357;28;20397;-75
2021/05/12 07:28:25;;;;;;;5.68;4.13;;;;;;;17.96;40.65;99071.75;5012457;28;20535;-74
2021/05/12 07:30:51;;;;;;;5.63;4.93;;;;;;;18.36;38.52;99063.50;5011711;28;20042;-74
2021/05/12 07:33:17;;;;;;;14.93;5.50;;;;;;;18.57;38.06;99058.31;4994352;28;20048;-73
2021/05/12 07:35:43;;;;;;;8.85;4.82;;;;;;;18.73;37.41;99055.13;5011744;28;20032;-73
2021/05/12 07:38:09;;;;;;;12.32;4.45;;;;;;;18.79;37.48;99042.16;4994320;28;20049;-74
2021/05/12 07:40:35;;;;;;;6.18;4.32;;;;;;;18.87;36.76;99035.31;4994391;28;20089;-83
2021/05/12 07:43:08;;;;;;;5.80;4.20;;;;;;;18.68;37.61;99036.50;5012081;28;20037;-79
2021/05/12 07:45:36;;;;;;;9.77;4.97;;;;;;;18.79;37.35;99034.50;4994450;28;20042;-75
2021/05/12 07:48:03;;;;;;;7.25;4.38;;;;;;;18.59;39.60;99036.88;5011831;28;20404;-83
2021/05/12 07:50:28;;;;;;;6.82;4.57;;;;;;;18.73;39.57;99027.59;4994227;28;20047;-72
2021/05/12 07:52:54;;;;;;;16.23;5.47;;;;;;;19.29;36.57;99034.94;4993042;28;20049;-84
2021/05/12 07:55:19;;;;;;;8.95;5.00;;;;;;;19.29;37.52;99034.94;5011859;28;20034;-86
2021/05/12 07:57:45;;;;;;;9.65;4.93;;;;;;;19.30;37.73;99028.88;5010947;28;20026;-78
2021/05/12 08:00:11;;;;;;;10.02;5.97;;;;;;;19.43;35.84;99034.13;5011031;28;20415;-82
2021/05/12 08:02:36;;;;;;;12.50;5.65;;;;;;;19.39;38.31;99033.34;4993960;28;20400;-73
2021/05/12 08:05:02;;;;;;;9.75;4.40;;;;;;;19.68;37.81;99028.44;4993086;28;20032;-73
2021/05/12 08:07:31;;;;;;;17.83;6.50;;;;;;;19.60;37.31;99019.13;5011054;28;20032;-81
2021/05/12 08:09:56;;;;;;;15.50;8.32;;;;;;;19.76;35.67;99024.34;5011177;28;20046;-78
2021/05/12 08:12:22;;;;;;;13.73;5.38;;;;;;;19.82;36.21;99015.44;5011372;28;20045;-76
2021/05/12 08:14:47;;;;;;;11.13;4.53;;;;;;;19.76;36.91;99006.53;5010933;28;20412;-73
2021/05/12 08:17:13;;;;;;;6.75;4.57;;;;;;;19.86;37.37;99010.56;5010682;28;20480;-75
2021/05/12 08:19:38;;;;;;;16.02;6.90;;;;;;;20.00;36.30;98996.34;5011017;28;20400;-75
2021/05/12 08:22:05;;;;;;;11.55;4.55;;;;;;;20.01;36.72;99005.69;5010951;28;20102;-75
2021/05/12 08:24:31;;;;;;;9.45;4.20;;;;;;;20.11;36.49;98999.16;5011386;28;20038;-73
2021/05/12 08:26:57;;;;;;;19.38;4.93;;;;;;;20.37;35.30;98990.50;4994741;28;20030;-72
2021/05/12 08:29:23;;;;;;;6.55;4.03;;;;;;;20.46;36.35;98988.84;5010967;28;20057;-72
2021/05/12 08:31:48;;;;;;;32.20;10.85;;;;;;;20.72;34.02;98989.50;5010902;28;20571;-79
2021/05/12 08:34:14;;;;;;;12.23;4.60;;;;;;;20.67;35.85;98989.13;5011129;28;20062;-80
2021/05/12 08:36:39;;;;;;;9.25;4.68;;;;;;;20.89;36.00;98989.81;4993099;28;20034;-74
2021/05/12 08:39:07;;;;;;;33.78;5.80;;;;;;;20.89;36.03;98981.28;5011082;28;20026;-79
2021/05/12 08:41:34;;;;;;;14.75;4.43;;;;;;;21.14;36.57;98964.03;5010739;28;20109;-70
2021/05/12 08:44:00;;;;;;;10.25;4.82;;;;;;;21.14;34.38;98960.38;5011221;28;20040;-77
2021/05/12 08:46:27;;;;;;;82.82;9.63;;;;;;;21.32;33.54;98951.66;4992981;28;20038;-74
2021/05/12 08:48:53;;;;;;;10.18;5.28;;;;;;;21.04;34.04;98945.03;5011145;28;20479;-75
2021/05/12 08:51:19;;;;;;;13.75;5.68;;;;;;;21.20;36.22;98952.19;5010135;28;20042;-74
2021/05/12 08:53:46;;;;;;;34.72;6.13;;;;;;;21.38;36.43;98952.03;5010542;28;20044;-74
2021/05/12 08:56:12;;;;;;;12.35;5.22;;;;;;;21.68;34.50;98947.69;4991331;28;20045;-74
2021/05/12 08:58:37;;;;;;;11.70;5.18;;;;;;;20.96;35.01;98941.44;4992666;28;20026;-74
2021/05/12 09:01:03;;;;;;;10.10;4.72;;;;;;;;;;5010769;28;20045;-75
2021/05/12 09:03:29;;;;;;;12.10;4.60;;;;;;;21.51;34.29;98935.25;5011323;28;20416;-84
2021/05/12 09:05:58;;;;;;;8.48;4.75;;;;;;;22.02;33.64;98927.72;4997141;28;20591;-75
2021/05/12 09:08:27;;;;;;;10.70;5.13;;;;;;;22.06;34.05;98912.63;4997062;28;20044;-72
2021/05/12 09:10:57;;;;;;;17.10;5.97;;;;;;;21.57;34.76;98922.16;5014440;28;20060;-73
2021/05/12 09:13:38;;;;;;;19.23;6.25;;;;;;;21.70;34.96;98928.13;5014501;28;20113;-74
2021/05/12 09:16:22;;;;;;;10.73;5.72;;;;;;;21.97;34.66;98922.53;4996946;28;20038;-77
2021/05/12 09:19:09;;;;;;;17.20;6.28;;;;;;;22.34;33.87;98913.50;4996568;28;20055;-72
2021/05/12 09:21:51;;;;;;;8.70;5.20;;;;;;;22.60;33.22;98894.78;5013979;28;20108;-76
2021/05/12 09:24:35;;;;;;;15.48;5.47;;;;;;;22.41;34.63;98899.94;5014632;28;20498;-76
2021/05/12 09:27:05;;;;;;;16.60;5.72;;;;;;;22.32;33.52;98905.38;4996824;28;20168;-76
2021/05/12 09:29:37;;;;;;;9.02;5.88;;;;;;;22.54;34.57;98914.41;4996730;28;20416;-76
2021/05/12 09:32:13;;;;;;;16.63;5.88;;;;;;;22.46;34.23;98910.06;5014399;28;20029;-76
2021/05/12 09:34:51;;;;;;;10.60;4.78;;;;;;;22.50;34.12;98905.13;5004233;28;20072;-76
2021/05/12 09:37:31;;;;;;;25.40;5.35;;;;;;;22.77;33.84;98907.13;5007371;28;20053;-76
2021/05/12 09:39:59;;;;;;;12.60;5.18;;;;;;;22.72;33.25;98904.78;5011149;28;20033;-76
2021/05/12 09:42:25;;;;;;;10.10;4.38;;;;;;;22.68;32.80;98886.91;5013441;28;20038;-76
2021/05/12 09:45:23;;;;;;;10.90;4.38;;;;;;;22.64;33.16;98880.47;4996009;28;20431;-76
2021/05/12 09:48:00;;;;;;;18.45;6.28;;;;;;;22.67;33.00;98871.06;5013590;28;20040;-76
2021/05/12 09:50:36;;;;;;;11.45;5.32;;;;;;;22.98;33.09;98879.50;5013332;28;20041;-76
2021/05/12 09:53:11;;;;;;;10.50;4.63;;;;;;;22.99;31.43;98875.41;5013168;28;20037;-76
2021/05/12 09:55:40;;;;;;;8.15;4.60;;;;;;;22.74;32.24;98876.66;4996145;28;20121;-76
2021/05/12 09:58:12;;;;;;;6.40;4.63;;;;;;;22.86;32.58;98870.34;4995544;28;20093;-75
2021/05/12 10:00:41;;;;;;;9.32;5.88;;;;;;;23.05;32.40;98858.59;5013475;28;20490;-76
2021/05/12 10:03:09;;;;;;;12.70;6.32;;;;;;;23.16;33.03;98858.41;4995545;28;20427;-76
2021/05/12 10:06:01;;;;;;;13.63;5.15;;;;;;;23.28;32.89;98863.50;4995442;28;20500;-76
2021/05/12 10:08:30;;;;;;;7.78;5.60;;;;;;;23.54;31.57;98863.81;5012031;28;20129;-76
2021/05/12 10:11:01;;;;;;;11.95;6.18;;;;;;;23.41;31.62;98866.50;5012879;28;20038;-75
2021/05/12 10:13:28;;;;;;;10.35;5.57;;;;;;;23.70;31.51;98869.59;5013232;28;20068;-76
2021/05/12 10:15:53;;;;;;;12.93;6.05;;;;;;;23.46;31.92;98873.75;4994280;28;20038;-76
2021/05/12 10:18:19;;;;;;;29.65;5.75;;;;;;;23.43;31.97;98866.88;4995292;28;20037;-76
2021/05/12 10:20:45;;;;;;;11.60;4.43;;;;;;;23.54;31.17;98861.75;5011590;28;20084;-76
2021/05/12 10:23:11;;;;;;;17.33;4.55;;;;;;;23.53;31.67;98862.19;5012683;28;20025;-76
2021/05/12 10:25:37;;;;;;;4.97;4.47;;;;;;;23.73;31.00;98849.97;5012821;28;20042;-76
2021/05/12 10:28:03;;;;;;;12.57;5.25;;;;;;;23.47;30.54;98853.34;5008863;28;20022;-76
2021/05/12 10:30:29;;;;;;;13.43;4.55;;;;;;;23.68;30.35;98846.38;5006738;28;20121;-76
2021/05/12 10:32:59;;;;;;;6.38;4.18;;;;;;;23.93;28.80;98833.63;4994911;28;20051;-76
2021/05/12 10:35:36;;;;;;;16.73;4.90;;;;;;;23.80;30.56;98838.41;5012840;28;20025;-76
2021/05/12 10:38:04;;;;;;;8.40;3.80;;;;;;;23.95;30.19;98845.41;5012722;28;20042;-76
2021/05/12 10:40:34;;;;;;;6.30;3.72;;;;;;;24.18;30.00;98840.84;5012535;28;20033;-76
2021/05/12 10:43:32;;;;;;;;;;;;;;;24.40;29.43;98843.19;5013025;28;20455;-75
2021/05/12 10:48:47;;;;;;;6.38;2.70;;;;;;;24.51;29.26;98843.72;5012652;28;20029;-75
2021/05/12 10:51:19;;;;;;;8.88;2.95;;;;;;;24.49;29.04;98828.25;5012698;28;20565;-73
2021/05/12 10:53:48;;;;;;;9.38;2.53;;;;;;;23.87;29.10;98843.16;4996502;28;20077;-74
2021/05/12 10:56:15;;;;;;;13.67;3.20;;;;;;;23.82;29.48;98838.75;5012289;28;20030;-74
2021/05/12 10:59:01;;;;;;;20.65;4.20;;;;;;;23.79;30.86;98828.22;5012696;28;20563;-74
2021/05/12 11:01:55;;;;;;;5.90;3.58;;;;;;;24.08;30.71;98827.59;5011606;28;20036;-74
2021/05/12 11:04:23;;;;;;;9.00;2.90;;;;;;;24.52;29.40;98835.94;5005267;28;20111;-74
2021/05/12 11:06:51;;;;;;;10.02;3.00;;;;;;;24.56;28.05;98836.66;5012265;28;20033;-73
2021/05/12 11:09:22;;;;;;;16.08;3.42;;;;;;;24.50;28.00;98827.00;5012686;28;20026;-77
2021/05/12 11:11:47;;;;;;;11.60;3.92;;;;;;;24.00;29.11;98828.97;5006764;28;20514;-75
2021/05/12 11:14:28;;;;;;;6.45;3.33;;;;;;;23.50;29.61;98826.78;5012676;28;20116;-74
2021/05/12 11:17:11;;;;;;;11.02;3.75;;;;;;;23.58;30.74;98833.16;5011832;28;20037;-75
2021/05/12 11:19:39;;;;;;;8.27;3.08;;;;;;;24.12;28.96;98828.31;4993663;28;20029;-73
2021/05/12 11:22:24;;;;;;;21.98;4.35;;;;;;;24.42;29.35;98817.81;5006677;28;20030;-79
2021/05/12 11:24:53;;;;;;;4.55;2.63;;;;;;;24.55;29.01;98823.59;5011756;28;20029;-73
2021/05/12 11:32:23;;;;;;;14.18;2.47;;;;;;;24.33;29.94;98809.06;5011748;28;20034;-75
2021/05/12 11:34:49;;;;;;;15.13;3.33;;;;;;;24.31;29.33;98803.78;5011702;28;20084;-76
2021/05/12 11:37:24;;;;;;;9.60;2.55;;;;;;;24.02;30.05;98793.03;4993995;28;20026;-76
2021/05/12 11:39:52;;;;;;;14.43;2.60;;;;;;;24.15;30.41;98787.47;4992208;28;20030;-75